Time;durP1;ratioP1;P1;durP2;ratioP2;P2;SDS_P1;SDS_P2;PMS_P1;PMS_P2;Temp;Humidity;BMP_temperature;BMP_pressure;BME280_temperature;BME280_humidity;BME280_pressure;Samples;Min_cycle;Max_cycle;Signal;HPM_P1;HPM_P2
2021/08/22 00:02:01;;;;;;;11.10;5.55;;;;;;;20.35;68.68;100838.59;5036501;28;20115;-65
2021/08/22 00:04:28;;;;;;;11.98;5.25;;;;;;;20.33;69.09;100835.25;5035842;28;20045;-65
2021/08/22 00:06:55;;;;;;;11.35;5.45;;;;;;;20.36;69.18;100845.91;5035392;28;20045;-65
2021/08/22 00:09:22;;;;;;;15.05;6.05;;;;;;;20.25;69.23;100822.78;5035954;28;20041;-64
2021/08/22 00:11:49;;;;;;;12.60;5.47;;;;;;;20.40;69.21;100840.38;5036437;28;20073;-65
2021/08/22 00:14:16;;;;;;;13.35;5.78;;;;;;;20.37;69.36;100833.38;5035801;28;20469;-64
2021/08/22 00:16:43;;;;;;;12.50;5.30;;;;;;;20.38;69.38;100837.91;5035889;28;20080;-64
2021/08/22 00:19:10;;;;;;;9.57;5.45;;;;;;;20.33;69.39;100829.56;5035472;28;20111;-64
2021/08/22 00:21:37;;;;;;;11.45;5.40;;;;;;;20.43;69.38;100846.22;5035407;28;20081;-65
2021/08/22 00:24:04;;;;;;;13.90;5.57;;;;;;;20.42;69.36;100827.53;5055042;28;20128;-64
2021/08/22 00:26:31;;;;;;;12.65;5.65;;;;;;;20.45;69.38;100841.03;5055212;28;20045;-65
2021/08/22 00:28:58;;;;;;;12.27;4.72;;;;;;;20.48;69.20;100843.19;5055100;28;20088;-65
2021/08/22 00:31:25;;;;;;;8.93;5.70;;;;;;;20.45;69.37;100829.69;5051601;28;20472;-64
2021/08/22 00:33:51;;;;;;;9.80;5.60;;;;;;;20.48;68.97;100837.53;5035030;28;20128;-64
2021/08/22 00:36:18;;;;;;;16.20;6.70;;;;;;;20.48;68.96;100831.84;5035396;28;20125;-65
2021/08/22 00:38:47;;;;;;;10.95;5.85;;;;;;;20.42;69.21;100815.38;5035076;28;20482;-65
2021/08/22 00:41:14;;;;;;;13.25;6.30;;;;;;;20.45;69.03;100824.03;5035529;28;20073;-65
2021/08/22 00:43:46;;;;;;;13.07;6.03;;;;;;;20.40;69.06;100809.19;5035746;28;20050;-65
2021/08/22 00:46:13;;;;;;;13.70;6.05;;;;;;;20.24;69.01;100783.38;5035063;28;20077;-65
2021/08/22 00:48:44;;;;;;;16.05;5.95;;;;;;;20.45;68.82;100820.34;5034838;28;20049;-64
2021/08/22 00:51:17;;;;;;;11.45;5.07;;;;;;;20.26;68.83;100800.91;5035018;28;20081;-65
2021/08/22 00:53:45;;;;;;;8.65;4.55;;;;;;;20.32;68.75;100811.72;5035057;28;20125;-65
2021/08/22 00:56:13;;;;;;;10.00;4.75;;;;;;;20.28;68.70;100805.06;5034969;28;20546;-64
2021/08/22 00:58:40;;;;;;;11.95;5.80;;;;;;;20.24;68.87;100820.25;5041088;28;20136;-64
2021/08/22 01:01:15;;;;;;;10.18;5.05;;;;;;;20.18;68.81;100802.63;5050410;28;20045;-64
2021/08/22 01:03:47;;;;;;;9.57;5.03;;;;;;;20.12;68.56;100801.13;5034922;28;20125;-64
2021/08/22 01:07:10;;;;;;;10.60;5.78;;;;;;;19.99;68.76;100805.00;5034504;28;20041;-63
2021/08/22 01:09:46;;;;;;;13.85;5.82;;;;;;;19.94;68.82;100803.19;5012684;28;20125;-64
2021/08/22 01:12:18;;;;;;;11.98;4.70;;;;;;;19.92;68.95;100801.84;5012479;28;20128;-64
2021/08/22 01:14:48;;;;;;;11.85;5.20;;;;;;;19.84;68.98;100789.38;5037440;28;20085;-64
2021/08/22 01:17:19;;;;;;;15.55;5.90;;;;;;;19.65;68.70;100762.25;5034406;28;20116;-64
2021/08/22 01:20:08;;;;;;;12.68;5.20;;;;;;;19.83;68.80;100799.06;5035196;28;20084;-64
2021/08/22 01:22:38;;;;;;;11.35;4.95;;;;;;;19.81;68.80;100795.72;5034470;28;20053;-64
2021/08/22 01:25:07;;;;;;;;;;;;;;;19.74;68.58;100801.06;5034948;28;20197;-65
2021/08/22 01:27:36;;;;;;;10.50;5.68;;;;;;;19.81;68.82;100801.41;5034305;28;20302;-65
2021/08/22 01:30:11;;;;;;;14.13;6.68;;;;;;;19.73;68.86;100783.25;5034263;28;20077;-65
2021/08/22 01:32:49;;;;;;;10.13;5.00;;;;;;;19.78;68.57;100802.91;5048240;28;20087;-65
2021/08/22 01:35:20;;;;;;;9.00;4.60;;;;;;;19.58;68.84;100764.72;5053438;28;20053;-64
2021/08/22 01:37:48;;;;;;;;;;;;;;;19.68;68.55;100788.25;5053559;28;20302;-65
2021/08/22 01:40:21;;;;;;;8.05;4.72;;;;;;;19.65;68.52;100781.25;5035354;28;20016;-65
2021/08/22 01:42:49;;;;;;;11.15;5.38;;;;;;;19.59;68.58;100766.41;5032923;28;20100;-64
2021/08/22 01:45:19;;;;;;;10.75;5.30;;;;;;;19.71;68.54;100784.75;5034069;28;20548;-64
2021/08/22 01:47:50;;;;;;;10.73;5.45;;;;;;;19.63;68.82;100766.59;5053905;28;20087;-64
2021/08/22 01:50:22;;;;;;;9.88;4.60;;;;;;;19.59;68.70;100766.41;5042236;28;20081;-64
2021/08/22 01:52:55;;;;;;;10.20;5.18;;;;;;;19.63;69.01;100792.94;5042325;28;20129;-64
2021/08/22 01:55:22;;;;;;;10.52;5.60;;;;;;;19.64;69.01;100797.41;5033614;28;20129;-64
2021/08/22 01:57:49;;;;;;;14.30;6.57;;;;;;;19.60;68.91;100779.41;5033432;28;20150;-64
2021/08/22 02:00:16;;;;;;;16.15;6.63;;;;;;;19.63;69.40;100790.09;5033425;28;20049;-64
2021/08/22 02:03:04;;;;;;;13.60;7.25;;;;;;;19.58;69.03;100759.06;5033176;28;20077;-65
2021/08/22 02:05:36;;;;;;;12.82;6.47;;;;;;;19.59;69.32;100762.75;5033856;28;20076;-64
2021/08/22 02:08:28;;;;;;;15.93;7.03;;;;;;;19.74;69.45;100778.41;5033606;28;20124;-65
2021/08/22 02:11:01;;;;;;;21.02;6.45;;;;;;;19.76;69.34;100774.06;5033453;28;20513;-65
2021/08/22 02:13:37;;;;;;;14.45;7.55;;;;;;;19.78;69.64;100773.72;5033042;28;20077;-65
2021/08/22 02:16:06;;;;;;;18.05;7.57;;;;;;;19.80;69.43;100774.22;5032867;28;20124;-65
2021/08/22 02:18:37;;;;;;;14.48;7.13;;;;;;;19.79;69.46;100766.88;5033190;28;20045;-65
2021/08/22 02:21:04;;;;;;;16.20;6.68;;;;;;;19.73;69.51;100765.41;5032034;28;20063;-65
2021/08/22 02:23:32;;;;;;;11.07;5.75;;;;;;;19.73;69.40;100760.59;5033373;28;20120;-65
2021/08/22 02:26:00;;;;;;;14.23;5.72;;;;;;;19.82;69.41;100775.53;5033339;28;20132;-65
2021/08/22 02:28:27;;;;;;;15.18;6.72;;;;;;;19.82;69.45;100769.03;5033235;28;20140;-65
2021/08/22 02:30:54;;;;;;;10.80;5.93;;;;;;;19.83;69.13;100776.41;5033160;28;20085;-67
2021/08/22 02:33:21;;;;;;;20.02;7.43;;;;;;;19.79;69.09;100762.03;5033356;28;20481;-65
2021/08/22 02:35:48;;;;;;;15.52;7.10;;;;;;;19.79;69.53;100764.88;5033303;28;20120;-65
2021/08/22 02:38:16;;;;;;;14.07;6.10;;;;;;;19.81;69.44;100761.72;5033098;28;20657;-65
2021/08/22 02:40:43;;;;;;;11.63;5.80;;;;;;;19.79;69.53;100769.72;5044376;28;20136;-65
2021/08/22 02:43:09;;;;;;;17.98;6.78;;;;;;;19.62;69.34;100736.56;5052552;28;20124;-64
2021/08/22 02:45:36;;;;;;;10.07;5.63;;;;;;;19.76;69.25;100761.88;5046901;28;20567;-64
2021/08/22 02:48:03;;;;;;;13.02;6.60;;;;;;;19.69;69.20;100753.91;5032855;28;20092;-65
2021/08/22 02:50:30;;;;;;;13.77;5.90;;;;;;;19.69;69.38;100767.25;5033064;28;20128;-65
2021/08/22 02:52:57;;;;;;;16.35;6.43;;;;;;;19.56;69.10;100750.09;5045248;28;20080;-65
2021/08/22 02:55:24;;;;;;;15.30;6.88;;;;;;;19.55;69.23;100753.25;5052718;28;20137;-65
2021/08/22 02:57:51;;;;;;;13.93;6.15;;;;;;;19.53;68.91;100749.94;5052469;28;20107;-65
2021/08/22 03:00:18;;;;;;;13.13;5.97;;;;;;;19.54;69.21;100755.25;5033515;28;20092;-63
2021/08/22 03:02:45;;;;;;;11.98;6.13;;;;;;;19.41;68.84;100740.09;5032363;28;20049;-64
2021/08/22 03:05:12;;;;;;;14.30;7.25;;;;;;;19.48;69.28;100759.41;5032485;28;20068;-64
2021/08/22 03:07:39;;;;;;;14.55;7.30;;;;;;;19.47;69.11;100762.59;5032573;28;20497;-64
2021/08/22 03:10:07;;;;;;;17.33;6.90;;;;;;;19.36;69.21;100739.47;5032430;28;20041;-64
2021/08/22 03:12:34;;;;;;;14.77;7.47;;;;;;;19.37;69.37;100752.44;5032250;28;20052;-65
2021/08/22 03:15:01;;;;;;;12.40;6.50;;;;;;;19.40;69.47;100755.44;5032052;28;20042;-65
2021/08/22 03:17:28;;;;;;;14.95;5.32;;;;;;;19.42;69.40;100752.28;5064578;28;20124;-65
2021/08/22 03:19:55;;;;;;;12.18;6.13;;;;;;;19.33;69.30;100740.13;5032507;28;20128;-65
2021/08/22 03:22:23;;;;;;;14.80;6.50;;;;;;;19.39;69.49;100750.94;5032449;28;20125;-65
2021/08/22 03:24:50;;;;;;;19.30;8.52;;;;;;;19.47;69.25;100762.59;5032594;28;20077;-65
2021/08/22 03:27:17;;;;;;;17.65;6.55;;;;;;;19.46;69.26;100756.09;5032560;28;20081;-65
2021/08/22 03:29:44;;;;;;;15.23;7.03;;;;;;;19.42;69.29;100757.94;5050686;28;20128;-65
2021/08/22 03:32:11;;;;;;;10.95;6.05;;;;;;;19.40;69.43;100751.78;5041758;28;20092;-64
2021/08/22 03:34:37;;;;;;;13.20;5.85;;;;;;;19.29;69.16;100736.31;5032785;28;20132;-64
2021/08/22 03:37:04;;;;;;;13.90;6.25;;;;;;;19.32;69.13;100744.13;5032078;28;20568;-64
2021/08/22 03:39:31;;;;;;;13.55;6.45;;;;;;;19.31;69.18;100742.44;5032060;28;20092;-64
2021/08/22 03:41:58;;;;;;;15.07;6.05;;;;;;;19.31;69.14;100742.44;5033057;28;20072;-64
2021/08/22 03:44:25;;;;;;;11.98;6.20;;;;;;;19.11;69.19;100710.00;5032142;28;20132;-64
2021/08/22 03:46:52;;;;;;;11.48;6.00;;;;;;;19.20;69.52;100724.16;5031798;28;20088;-65
2021/08/22 03:49:19;;;;;;;13.25;6.07;;;;;;;19.30;69.09;100740.78;5032033;28;20140;-65
2021/08/22 03:51:46;;;;;;;12.57;6.32;;;;;;;19.32;69.33;100727.16;5040645;28;20087;-65
2021/08/22 03:54:13;;;;;;;14.98;6.65;;;;;;;19.31;69.54;100719.81;5031939;28;20128;-64
2021/08/22 03:56:40;;;;;;;12.75;6.68;;;;;;;19.35;69.56;100720.78;5032089;28;20076;-64
2021/08/22 03:59:07;;;;;;;10.77;5.70;;;;;;;19.31;69.48;100720.63;5042554;28;20092;-65
2021/08/22 04:01:37;;;;;;;12.25;5.88;;;;;;;19.31;69.33;100714.13;5051798;28;20124;-65
2021/08/22 04:04:05;;;;;;;14.63;6.50;;;;;;;19.28;69.38;100717.63;5032393;28;20111;-65
2021/08/22 04:06:33;;;;;;;14.55;6.05;;;;;;;19.16;69.21;100707.84;5031766;28;20096;-65
2021/08/22 04:09:01;;;;;;;15.05;5.85;;;;;;;19.18;69.26;100718.84;5032640;28;20124;-65
2021/08/22 04:11:29;;;;;;;9.70;5.50;;;;;;;19.10;69.34;100708.34;5030744;28;20041;-65
2021/08/22 04:13:56;;;;;;;10.10;5.78;;;;;;;19.12;69.30;100718.16;5031849;28;20096;-65
2021/08/22 04:16:23;;;;;;;14.43;6.50;;;;;;;19.09;69.33;100713.16;5031287;28;20558;-65
2021/08/22 04:18:50;;;;;;;13.23;6.05;;;;;;;19.12;69.23;100718.16;5031498;28;20045;-64
2021/08/22 04:21:17;;;;;;;12.73;5.70;;;;;;;19.15;69.24;100716.69;5032025;28;20108;-65
2021/08/22 04:23:44;;;;;;;17.08;6.72;;;;;;;19.12;69.23;100706.03;5032003;28;20129;-65
2021/08/22 04:26:11;;;;;;;14.45;6.65;;;;;;;19.16;69.09;100719.16;5034856;28;20551;-64
2021/08/22 04:28:37;;;;;;;14.57;5.88;;;;;;;18.93;69.10;100683.72;5035252;28;20580;-65
2021/08/22 04:31:04;;;;;;;16.95;7.05;;;;;;;19.08;69.49;100705.84;5035286;28;20049;-65
2021/08/22 04:33:31;;;;;;;13.80;7.03;;;;;;;19.10;69.81;100714.81;5035189;28;20507;-65
2021/08/22 04:35:58;;;;;;;16.23;6.72;;;;;;;18.81;69.87;100666.59;5035275;28;20120;-65
2021/08/22 04:38:27;;;;;;;17.67;5.97;;;;;;;19.08;70.24;100705.84;5034011;28;20088;-66
2021/08/22 04:40:54;;;;;;;15.48;6.10;;;;;;;19.15;70.41;100717.50;5035138;28;20354;-65
2021/08/22 04:43:21;;;;;;;14.10;6.28;;;;;;;19.18;70.20;100722.50;5035631;28;20548;-65
2021/08/22 04:45:47;;;;;;;15.98;5.90;;;;;;;19.05;70.23;100700.88;5035117;28;20137;-65
2021/08/22 04:48:14;;;;;;;10.43;5.40;;;;;;;19.06;69.87;100713.84;5034954;28;20049;-65
2021/08/22 04:50:41;;;;;;;8.48;4.75;;;;;;;19.02;69.91;100715.69;5035179;28;20052;-65
2021/08/22 04:53:08;;;;;;;11.38;5.22;;;;;;;18.94;69.98;100700.38;5039818;28;20120;-64
2021/08/22 04:55:35;;;;;;;14.98;7.13;;;;;;;18.93;69.77;100709.19;5053526;28;20086;-65
2021/08/22 04:58:01;;;;;;;13.75;6.18;;;;;;;18.95;69.88;100712.53;5052568;28;20128;-65
2021/08/22 05:00:28;;;;;;;10.98;6.18;;;;;;;18.95;69.75;100712.53;5035302;28;20562;-65
2021/08/22 05:02:55;;;;;;;11.43;5.20;;;;;;;18.83;69.55;100703.84;5034670;28;20128;-64
2021/08/22 05:05:23;;;;;;;11.55;5.28;;;;;;;18.87;69.38;100721.81;5034818;28;20418;-65
2021/08/22 05:07:55;;;;;;;9.60;4.97;;;;;;;18.80;69.34;100708.16;5034523;28;20049;-65
2021/08/22 05:10:23;;;;;;;14.88;6.05;;;;;;;18.79;69.59;100708.50;5034699;28;20085;-65
2021/08/22 05:12:49;;;;;;;11.65;5.35;;;;;;;18.78;69.43;100719.00;5034516;28;20470;-65
2021/08/22 05:15:17;;;;;;;8.80;5.05;;;;;;;18.72;69.05;100711.84;5034962;28;20049;-65
2021/08/22 05:17:43;;;;;;;10.43;5.03;;;;;;;18.76;69.08;100723.31;5035004;28;20492;-64
2021/08/22 05:20:11;;;;;;;10.95;5.78;;;;;;;18.56;69.36;100693.66;5034475;28;20088;-64
2021/08/22 05:22:38;;;;;;;15.68;5.57;;;;;;;18.62;69.26;100707.31;5034432;28;20042;-65
2021/08/22 05:25:05;;;;;;;19.40;6.05;;;;;;;18.67;69.26;100712.81;5034356;28;20077;-65
2021/08/22 05:27:32;;;;;;;11.13;5.40;;;;;;;18.66;69.48;100710.28;5034234;28;20127;-65
2021/08/22 05:29:59;;;;;;;10.05;5.40;;;;;;;18.69;69.42;100710.47;5034356;28;20124;-65
2021/08/22 05:32:26;;;;;;;8.55;5.13;;;;;;;18.72;69.19;100713.84;5049563;28;20077;-65
2021/08/22 05:34:53;;;;;;;8.38;5.53;;;;;;;18.65;69.29;100702.97;5034906;28;20543;-65
2021/08/22 05:37:20;;;;;;;11.85;5.90;;;;;;;18.63;69.20;100689.19;5033310;28;20132;-65
2021/08/22 05:39:48;;;;;;;8.30;5.30;;;;;;;18.76;69.35;100706.34;5051980;28;20568;-64
2021/08/22 05:42:15;;;;;;;13.02;5.22;;;;;;;18.74;69.16;100705.88;5053975;28;20508;-64
2021/08/22 05:44:42;;;;;;;11.73;5.00;;;;;;;18.71;69.17;100712.97;5043428;28;20083;-64
2021/08/22 05:47:08;;;;;;;10.55;5.07;;;;;;;18.61;69.45;100700.00;5033990;28;20140;-64
2021/08/22 05:49:39;;;;;;;13.82;6.03;;;;;;;18.60;69.22;100706.81;5033484;28;20576;-65
2021/08/22 05:52:07;;;;;;;13.13;6.78;;;;;;;18.63;69.47;100703.34;5053954;28;20068;-65
2021/08/22 05:54:36;;;;;;;8.57;4.70;;;;;;;18.57;69.20;100692.50;5053868;28;20465;-64
2021/08/22 05:57:03;;;;;;;14.90;5.78;;;;;;;18.58;69.54;100711.97;5035363;28;20573;-65
2021/08/22 05:59:30;;;;;;;11.45;5.65;;;;;;;18.43;69.23;100689.81;5033528;28;20470;-64
2021/08/22 06:01:57;;;;;;;9.38;5.65;;;;;;;18.54;69.27;100710.97;5034033;28;20124;-65
2021/08/22 06:04:24;;;;;;;13.80;5.43;;;;;;;18.50;69.28;100704.31;5033675;28;20136;-65
2021/08/22 06:06:51;;;;;;;10.48;5.57;;;;;;;18.45;69.42;100715.75;5032849;28;20083;-64
2021/08/22 06:09:18;;;;;;;9.70;5.28;;;;;;;18.44;69.66;100717.75;5033493;28;20045;-64
2021/08/22 06:11:45;;;;;;;10.23;5.32;;;;;;;18.40;69.84;100724.41;5033864;28;20073;-64
2021/08/22 06:14:12;;;;;;;16.02;6.07;;;;;;;18.42;69.43;100727.72;5033518;28;20140;-65
2021/08/22 06:16:39;;;;;;;14.80;5.70;;;;;;;18.42;69.59;100722.06;5032244;28;20128;-64
2021/08/22 06:19:05;;;;;;;12.10;4.90;;;;;;;18.42;69.53;100722.91;5033429;28;20129;-65
2021/08/22 06:21:32;;;;;;;10.20;5.70;;;;;;;18.36;69.78;100717.72;5033103;28;20481;-64
2021/08/22 06:23:59;;;;;;;16.13;6.50;;;;;;;18.38;69.88;100718.25;5033840;28;20049;-64
2021/08/22 06:26:27;;;;;;;8.55;4.60;;;;;;;18.38;69.87;100721.06;5033335;28;20092;-64
2021/08/22 06:28:55;;;;;;;15.25;5.75;;;;;;;18.29;69.93;100701.28;5033372;28;20052;-65
2021/08/22 06:31:21;;;;;;;10.73;5.13;;;;;;;18.43;69.91;100723.75;5033112;28;20449;-65
2021/08/22 06:33:48;;;;;;;12.65;5.35;;;;;;;18.48;70.13;100726.41;5032981;28;20052;-64
2021/08/22 06:36:15;;;;;;;12.20;6.10;;;;;;;18.49;70.32;100716.75;5032912;28;20080;-64
2021/08/22 06:38:42;;;;;;;14.77;6.10;;;;;;;18.57;70.44;100727.28;5033020;28;20118;-64
2021/08/22 06:41:09;;;;;;;13.05;6.63;;;;;;;18.64;70.58;100733.28;5033670;28;20132;-63
2021/08/22 06:43:36;;;;;;;12.63;5.95;;;;;;;18.65;70.56;100728.44;5032922;28;20136;-64
2021/08/22 06:46:03;;;;;;;10.38;5.97;;;;;;;18.78;70.79;100735.16;5033358;28;20398;-64
2021/08/22 06:48:30;;;;;;;11.13;6.15;;;;;;;18.89;70.97;100736.47;5032646;28;20494;-65
2021/08/22 06:50:57;;;;;;;10.63;6.65;;;;;;;19.02;70.84;100743.97;5032688;28;20088;-65
2021/08/22 06:53:23;;;;;;;9.60;5.55;;;;;;;19.10;70.80;100740.31;5032538;28;20136;-64
2021/08/22 06:55:50;;;;;;;10.18;5.75;;;;;;;19.20;70.52;100735.47;5032571;28;20140;-65
2021/08/22 06:58:17;;;;;;;10.35;5.85;;;;;;;19.30;70.37;100740.78;5038196;28;20128;-65
2021/08/22 07:00:44;;;;;;;9.80;5.55;;;;;;;19.39;70.25;100733.13;5052800;28;20187;-65
2021/08/22 07:03:11;;;;;;;9.50;5.25;;;;;;;19.62;69.91;100747.88;5052511;28;20087;-65
2021/08/22 07:05:38;;;;;;;10.50;5.93;;;;;;;19.55;69.68;100731.41;5038700;28;20103;-64
2021/08/22 07:08:05;;;;;;;12.52;4.72;;;;;;;19.93;69.47;100742.03;5032350;28;20049;-64
2021/08/22 07:10:32;;;;;;;9.05;5.50;;;;;;;19.96;68.96;100729.97;5032524;28;20136;-64
2021/08/22 07:12:59;;;;;;;7.60;5.03;;;;;;;20.28;68.87;100761.72;5032705;28;20124;-65
2021/08/22 07:15:26;;;;;;;7.95;4.13;;;;;;;20.46;68.62;100751.91;5033200;28;20600;-65
2021/08/22 07:17:53;;;;;;;7.28;4.43;;;;;;;20.61;68.31;100750.50;5032629;28;20447;-65
2021/08/22 07:20:20;;;;;;;11.02;5.10;;;;;;;20.71;68.05;100738.75;5032702;28;20123;-65
2021/08/22 07:22:47;;;;;;;9.30;5.22;;;;;;;20.99;67.79;100743.91;5032806;28;20103;-64
2021/08/22 07:25:14;;;;;;;6.72;4.50;;;;;;;21.16;67.56;100754.28;5033119;28;20067;-65
2021/08/22 07:27:41;;;;;;;10.65;4.97;;;;;;;21.20;67.11;100729.72;5052217;28;20135;-64
2021/08/22 07:30:08;;;;;;;9.27;5.28;;;;;;;21.53;66.87;100750.44;5052261;28;20049;-65
2021/08/22 07:32:35;;;;;;;9.60;5.95;;;;;;;21.44;66.63;100727.00;5044238;28;20077;-64
2021/08/22 07:35:02;;;;;;;14.32;5.85;;;;;;;21.74;66.45;100747.56;5032303;28;20505;-64
2021/08/22 07:37:29;;;;;;;8.88;5.22;;;;;;;21.90;65.94;100753.38;5032135;28;20084;-64
2021/08/22 07:39:56;;;;;;;9.35;5.40;;;;;;;22.06;65.78;100759.22;5043872;28;20069;-65
2021/08/22 07:42:23;;;;;;;7.57;4.82;;;;;;;22.23;65.09;100758.22;5052008;28;20131;-65
2021/08/22 07:44:50;;;;;;;10.57;5.43;;;;;;;22.51;65.00;100763.19;5052071;28;20471;-64
2021/08/22 07:47:17;;;;;;;14.65;5.72;;;;;;;22.62;64.05;100753.81;5041481;28;20119;-64
2021/08/22 07:49:44;;;;;;;12.10;5.25;;;;;;;22.85;63.81;100754.13;5032989;28;20057;-64
2021/08/22 07:52:11;;;;;;;6.90;5.03;;;;;;;23.10;63.71;100757.75;5032164;28;20050;-64
2021/08/22 07:54:37;;;;;;;7.75;5.53;;;;;;;23.24;62.72;100745.97;5038798;28;20073;-65
2021/08/22 07:57:04;;;;;;;9.48;4.97;;;;;;;23.50;62.61;100753.22;5051803;28;20083;-65
2021/08/22 07:59:31;;;;;;;13.40;4.63;;;;;;;23.55;62.15;100727.31;5032514;28;20139;-64
2021/08/22 08:01:58;;;;;;;9.77;3.97;;;;;;;23.82;61.57;100743.56;5034819;28;20053;-65
2021/08/22 08:04:25;;;;;;;8.10;4.65;;;;;;;24.05;61.03;100751.50;5016154;28;20494;-65
2021/08/22 08:06:52;;;;;;;9.15;4.70;;;;;;;24.23;60.61;100747.09;5015296;28;20050;-65
2021/08/22 08:09:19;;;;;;;9.65;4.70;;;;;;;24.39;60.19;100749.13;5016136;28;20096;-65
2021/08/22 08:11:46;;;;;;;7.30;4.38;;;;;;;24.62;59.64;100769.28;5016067;28;20086;-65
2021/08/22 08:14:13;;;;;;;10.60;4.90;;;;;;;24.80;59.52;100762.78;5015894;28;20100;-64
2021/08/22 08:16:40;;;;;;;10.25;5.85;;;;;;;25.03;59.16;100767.81;5017150;28;20046;-64
2021/08/22 08:19:07;;;;;;;10.00;4.85;;;;;;;25.23;58.42;100763.78;5035813;28;20143;-64
2021/08/22 08:21:34;;;;;;;10.73;5.65;;;;;;;25.47;57.69;100764.66;5033722;28;20096;-64
2021/08/22 08:24:01;;;;;;;12.13;6.28;;;;;;;25.62;57.16;100760.09;5016321;28;20133;-64
2021/08/22 08:26:28;;;;;;;14.45;7.55;;;;;;;25.81;56.94;100757.19;5015854;28;20077;-64
2021/08/22 08:28:54;;;;;;;14.13;7.38;;;;;;;25.96;56.50;100752.59;5015351;28;20534;-64
2021/08/22 08:31:21;;;;;;;16.02;7.07;;;;;;;26.19;56.12;100756.28;5015868;28;20069;-64
2021/08/22 08:33:49;;;;;;;14.55;6.88;;;;;;;26.42;55.53;100759.09;5015495;28;20046;-64
2021/08/22 08:36:16;;;;;;;14.15;7.60;;;;;;;26.67;55.04;100759.56;5014605;28;20133;-65
2021/08/22 08:38:42;;;;;;;14.68;6.43;;;;;;;26.79;54.40;100737.63;5028883;28;20124;-64
2021/08/22 08:41:09;;;;;;;14.65;7.28;;;;;;;27.02;53.84;100734.69;5034689;28;20128;-64
2021/08/22 08:43:37;;;;;;;10.70;5.13;;;;;;;27.41;53.25;100750.38;5035769;28;20069;-64
2021/08/22 08:46:32;;;;;;;14.38;6.10;;;;;;;27.63;53.17;100754.34;5033837;28;20129;-64
2021/08/22 08:49:05;;;;;;;15.40;5.57;;;;;;;27.84;52.62;100758.69;5035119;28;20041;-64
2021/08/22 08:51:41;;;;;;;9.82;5.70;;;;;;;28.04;51.94;100768.75;5035027;28;20136;-64
2021/08/22 08:54:38;;;;;;;8.60;5.45;;;;;;;28.19;52.06;100752.47;5021107;28;20080;-65
2021/08/22 08:57:05;;;;;;;12.27;5.25;;;;;;;28.48;51.08;100761.34;5015510;28;20141;-64
2021/08/22 08:59:34;;;;;;;10.07;4.68;;;;;;;28.75;50.92;100761.97;5032988;28;20084;-64
2021/08/22 09:02:01;;;;;;;7.10;4.00;;;;;;;28.85;50.35;100755.47;5034866;28;20141;-64
2021/08/22 09:04:34;;;;;;;8.13;3.97;;;;;;;29.09;49.74;100767.53;5034728;28;20049;-64
2021/08/22 09:07:40;;;;;;;10.70;4.88;;;;;;;29.12;50.34;100764.69;5035044;28;20636;-63
2021/08/22 09:10:28;;;;;;;12.23;4.07;;;;;;;29.18;50.14;100763.09;5012533;28;20042;-63
2021/08/22 09:13:19;;;;;;;8.90;3.97;;;;;;;29.25;49.52;100768.03;5032970;28;20129;-63
2021/08/22 09:16:00;;;;;;;14.27;4.60;;;;;;;29.34;49.17;100762.75;5035190;28;20132;-63
2021/08/22 09:18:46;;;;;;;7.68;4.60;;;;;;;29.57;48.90;100767.34;5034667;28;20092;-63
2021/08/22 09:22:04;;;;;;;7.05;4.00;;;;;;;29.48;49.13;100765.69;5047257;28;20164;-63
2021/08/22 09:24:31;;;;;;;8.60;3.90;;;;;;;29.76;47.85;100772.78;5038661;28;20136;-63
2021/08/22 09:27:35;;;;;;;7.85;3.90;;;;;;;29.83;48.29;100764.19;5034683;28;20088;-63
2021/08/22 09:30:38;;;;;;;9.05;3.92;;;;;;;29.95;47.74;100760.94;5034421;28;20468;-63
2021/08/22 09:33:42;;;;;;;6.57;2.72;;;;;;;29.96;47.91;100758.88;5034292;28;20041;-62
2021/08/22 09:36:24;;;;;;;6.32;3.10;;;;;;;30.30;47.69;100756.47;5034113;28;20144;-64
2021/08/22 09:39:28;;;;;;;7.93;3.88;;;;;;;30.50;46.79;100754.00;5034275;28;20129;-63
2021/08/22 09:42:32;;;;;;;8.07;3.63;;;;;;;30.74;46.85;100755.22;5034034;28;20486;-64
2021/08/22 09:45:36;;;;;;;9.90;3.92;;;;;;;31.05;45.98;100746.94;5048190;28;20088;-63
2021/08/22 09:48:22;;;;;;;7.18;2.92;;;;;;;31.41;45.05;100767.84;5052975;28;20136;-63
2021/08/22 09:51:16;;;;;;;7.45;3.35;;;;;;;31.59;45.15;100761.97;5047712;28;20405;-63
2021/08/22 09:54:05;;;;;;;8.75;3.50;;;;;;;31.75;44.51;100755.72;5049164;28;20077;-63
2021/08/22 09:56:49;;;;;;;5.40;3.10;;;;;;;31.95;43.89;100770.47;5040754;28;20446;-64
2021/08/22 09:59:38;;;;;;;10.05;3.50;;;;;;;32.07;44.01;100758.44;5042078;28;20128;-64
2021/08/22 10:02:20;;;;;;;6.22;3.42;;;;;;;32.31;42.95;100762.38;5049310;28;20128;-64
2021/08/22 10:05:08;;;;;;;6.65;3.63;;;;;;;32.67;43.18;100762.09;5033992;28;20049;-64
2021/08/22 10:07:47;;;;;;;7.35;3.25;;;;;;;32.99;42.21;100753.09;5033560;28;20073;-64
2021/08/22 10:10:36;;;;;;;8.13;3.25;;;;;;;33.11;42.24;100749.66;5033752;28;20128;-63
2021/08/22 10:13:03;;;;;;;4.85;2.90;;;;;;;33.39;41.29;100759.25;5033605;28;20133;-63
2021/08/22 10:15:30;;;;;;;7.80;3.20;;;;;;;33.57;40.77;100767.72;5033339;28;20057;-64
2021/08/22 10:17:57;;;;;;;9.43;3.08;;;;;;;33.69;40.73;100765.09;5033537;28;20124;-64
2021/08/22 10:20:43;;;;;;;5.55;3.53;;;;;;;33.77;40.25;100745.53;5036794;28;20072;-63
2021/08/22 10:23:32;;;;;;;5.78;2.80;;;;;;;34.01;40.24;100755.13;5052026;28;20140;-62
2021/08/22 10:25:59;;;;;;;6.30;2.95;;;;;;;34.23;39.60;100758.53;5035085;28;20057;-63
2021/08/22 10:28:44;;;;;;;5.20;2.97;;;;;;;34.30;39.86;100751.78;5033483;28;20041;-64
2021/08/22 10:31:12;;;;;;;5.35;2.80;;;;;;;34.20;39.26;100736.22;5033278;28;20057;-64
2021/08/22 10:34:13;;;;;;;6.82;3.17;;;;;;;34.21;39.75;100740.75;5032985;28;20057;-63
2021/08/22 10:36:41;;;;;;;3.90;2.70;;;;;;;34.42;38.95;100745.34;5033082;28;20137;-63
2021/08/22 10:39:23;;;;;;;4.43;3.15;;;;;;;34.54;38.68;100735.25;5033797;28;22057;-64
2021/08/22 10:41:51;;;;;;;5.22;3.10;;;;;;;34.56;38.34;100733.53;5033154;28;20132;-64
2021/08/22 10:44:36;;;;;;;5.97;2.90;;;;;;;34.47;38.59;100738.25;5032997;28;20076;-64
2021/08/22 10:47:10;;;;;;;5.65;2.80;;;;;;;34.46;38.47;100720.00;5033080;28;20481;-64
2021/08/22 10:49:52;;;;;;;8.25;3.05;;;;;;;34.45;38.52;100732.88;5033109;28;20124;-64
2021/08/22 10:52:34;;;;;;;7.95;3.70;;;;;;;34.63;38.16;100727.63;5032666;28;20041;-62
2021/08/22 10:55:10;;;;;;;4.05;2.92;;;;;;;34.73;37.95;100711.25;5032945;28;20191;-63
2021/08/22 10:57:55;;;;;;;5.63;3.30;;;;;;;34.91;37.91;100719.63;5039387;28;20485;-63
2021/08/22 11:00:29;;;;;;;4.65;3.08;;;;;;;35.41;36.58;100717.78;5032704;28;20136;-63
2021/08/22 11:03:17;;;;;;;5.68;3.03;;;;;;;36.13;35.34;100711.19;5032667;28;20060;-63
2021/08/22 11:05:45;;;;;;;6.38;2.95;;;;;;;36.96;34.26;100714.44;5032624;28;20046;-63
2021/08/22 11:08:26;;;;;;;4.28;2.72;;;;;;;37.26;33.73;100718.13;5032298;28;20050;-62
2021/08/22 11:10:57;;;;;;;6.53;3.17;;;;;;;36.98;34.14;100703.13;5031585;28;20133;-62
2021/08/22 11:13:25;;;;;;;5.85;3.47;;;;;;;36.78;34.85;100694.50;5032736;28;20038;-62
2021/08/22 11:15:52;;;;;;;;;;;;;;;36.35;36.42;100694.84;5033078;28;20076;-63
2021/08/22 11:18:20;;;;;;;5.85;2.78;;;;;;;36.45;35.39;100705.38;5032337;28;19967;-63
2021/08/22 11:20:47;;;;;;;4.43;2.42;;;;;;;36.45;34.71;100704.56;5032540;28;20121;-62
2021/08/22 11:23:17;;;;;;;6.88;3.85;;;;;;;36.41;34.80;100695.94;5032475;28;20049;-64
2021/08/22 11:25:58;;;;;;;11.00;4.82;;;;;;;36.25;35.11;100679.31;5032236;28;20076;-62
2021/08/22 11:28:25;;;;;;;11.73;4.57;;;;;;;36.14;35.39;100701.19;5032028;28;20096;-63
2021/08/22 11:30:52;;;;;;;8.43;4.00;;;;;;;36.23;35.44;100698.47;5029946;28;20132;-63
2021/08/22 11:33:18;;;;;;;7.40;4.30;;;;;;;36.25;35.12;100698.84;5032185;28;20049;-62
2021/08/22 11:35:47;;;;;;;7.82;4.47;;;;;;;36.28;34.93;100683.41;5047888;28;20128;-63
2021/08/22 11:38:15;;;;;;;;;;;;;;;35.96;36.85;100678.34;5052615;28;20127;-63
2021/08/22 11:40:42;;;;;;;9.47;4.77;;;;;;;36.27;35.54;100670.94;5041433;28;19920;-62